createdAt,value
2023-03-12T00:02:13.986Z,63.80
2023-03-12T00:04:42.341Z,63.80
2023-03-12T00:07:12.734Z,63.70
2023-03-12T00:09:43.494Z,63.80
2023-03-12T00:12:13.289Z,63.60
2023-03-12T00:14:41.514Z,63.80
2023-03-12T00:17:09.915Z,63.80
2023-03-12T00:19:38.316Z,63.80
2023-03-12T00:22:06.614Z,63.70
2023-03-12T00:24:34.918Z,63.80
2023-03-12T00:27:03.350Z,63.60
2023-03-12T00:29:33.489Z,63.60
2023-03-12T00:32:01.849Z,63.70
2023-03-12T00:34:30.134Z,63.60
2023-03-12T00:36:58.509Z,63.60
2023-03-12T00:39:26.851Z,63.50
2023-03-12T00:41:55.375Z,63.50
2023-03-12T00:44:23.554Z,63.30
2023-03-12T00:46:53.359Z,63.20
2023-03-12T00:49:21.808Z,63.30
2023-03-12T00:51:52.795Z,63.30
2023-03-12T00:54:21.281Z,63.20
2023-03-12T00:56:50.140Z,63.40
2023-03-12T00:59:18.558Z,63.20
2023-03-12T01:01:47.172Z,63.50
2023-03-12T01:04:19.905Z,63.30
2023-03-12T01:06:50.439Z,63.40
2023-03-12T01:09:19.669Z,63.30
2023-03-12T01:11:48.651Z,63.30
2023-03-12T01:14:17.182Z,63.30
2023-03-12T01:16:45.514Z,63.30
2023-03-12T01:19:14.239Z,63.30
2023-03-12T01:21:46.820Z,63.20
2023-03-12T01:24:15.231Z,63.80
2023-03-12T01:26:45.181Z,63.20
2023-03-12T01:29:13.563Z,63.50
2023-03-12T01:31:42.087Z,63.20
2023-03-12T01:34:12.716Z,63.00
2023-03-12T01:36:41.949Z,63.00
2023-03-12T01:39:12.598Z,63.00
2023-03-12T01:41:41.127Z,63.00
2023-03-12T01:44:14.208Z,63.00
2023-03-12T01:46:44.579Z,62.90
2023-03-12T01:49:18.880Z,62.80
2023-03-12T01:51:50.466Z,62.80
2023-03-12T01:54:27.530Z,62.60
2023-03-12T01:56:57.284Z,62.80
2023-03-12T01:59:29.603Z,62.90
2023-03-12T02:01:59.281Z,62.90
2023-03-12T02:04:30.103Z,62.90
2023-03-12T02:07:05.336Z,62.60
2023-03-12T02:09:37.580Z,62.70
2023-03-12T02:12:07.225Z,62.80
2023-03-12T02:14:36.011Z,62.70
2023-03-12T02:17:04.934Z,62.60
2023-03-12T02:19:43.217Z,62.60
2023-03-12T02:22:12.786Z,62.70
2023-03-12T02:24:47.417Z,62.70
2023-03-12T02:27:19.398Z,62.60
2023-03-12T02:29:48.214Z,62.60
2023-03-12T02:32:22.517Z,62.60
2023-03-12T02:34:52.303Z,62.50
2023-03-12T02:37:21.351Z,62.60
2023-03-12T02:39:57.041Z,62.70
2023-03-12T02:42:28.932Z,63.30
2023-03-12T02:44:57.338Z,62.50
2023-03-12T02:47:26.510Z,62.50
2023-03-12T02:49:55.635Z,62.60
2023-03-12T02:52:23.854Z,62.60
2023-03-12T02:54:54.195Z,62.50
2023-03-12T02:57:22.580Z,62.70
2023-03-12T02:59:52.245Z,62.60
2023-03-12T03:02:20.562Z,62.80
2023-03-12T03:04:48.887Z,62.60
2023-03-12T03:07:17.308Z,62.80
2023-03-12T03:09:45.730Z,62.70
2023-03-12T03:12:14.334Z,62.80
2023-03-12T03:14:43.385Z,62.70
2023-03-12T03:17:15.213Z,62.80
2023-03-12T03:19:43.473Z,63.00
2023-03-12T03:22:13.805Z,63.00
2023-03-12T03:24:42.023Z,62.80
2023-03-12T03:27:10.292Z,62.70
2023-03-12T03:29:38.881Z,62.70
2023-03-12T03:32:07.956Z,62.80
2023-03-12T03:34:37.745Z,62.70
2023-03-12T03:37:07.898Z,62.80
2023-03-12T03:39:36.975Z,63.00
2023-03-12T03:42:05.749Z,62.80
2023-03-12T03:44:35.209Z,62.70
2023-03-12T03:47:03.858Z,62.80
2023-03-12T03:49:34.386Z,62.80
2023-03-12T03:52:04.206Z,62.90
2023-03-12T03:54:36.549Z,62.80
2023-03-12T03:57:06.790Z,63.00
2023-03-12T03:59:35.543Z,62.80
2023-03-12T04:02:06.254Z,63.20
2023-03-12T04:04:37.543Z,62.90
2023-03-12T04:07:07.351Z,62.70
2023-03-12T04:09:38.634Z,62.70
2023-03-12T04:12:07.345Z,62.70
2023-03-12T04:14:41.299Z,62.60
2023-03-12T04:17:10.767Z,62.50
2023-03-12T04:19:42.794Z,62.60
2023-03-12T04:22:20.112Z,62.70
2023-03-12T04:24:48.574Z,62.70
2023-03-12T04:27:16.988Z,62.50
2023-03-12T04:29:47.903Z,62.30
2023-03-12T04:32:16.926Z,62.40
2023-03-12T04:34:47.622Z,62.40
2023-03-12T04:37:19.528Z,62.40
2023-03-12T04:39:48.233Z,62.50
2023-03-12T04:42:16.687Z,62.40
2023-03-12T04:44:46.494Z,62.40
2023-03-12T04:47:14.654Z,62.50
2023-03-12T04:49:42.977Z,62.40
2023-03-12T04:52:11.304Z,62.40
2023-03-12T04:54:41.325Z,62.30
2023-03-12T04:57:09.582Z,62.40
2023-03-12T04:59:37.850Z,62.80
2023-03-12T05:02:06.220Z,62.40
2023-03-12T05:04:34.532Z,62.30
2023-03-12T05:07:02.718Z,62.50
2023-03-12T05:09:31.358Z,62.40
2023-03-12T05:12:00.977Z,62.40
2023-03-12T05:14:32.361Z,62.50
2023-03-12T05:17:00.662Z,63.40
2023-03-12T05:19:29.017Z,62.70
2023-03-12T05:21:57.253Z,62.70
2023-03-12T05:24:25.533Z,62.70
2023-03-12T05:26:53.844Z,62.70
2023-03-12T05:29:26.392Z,62.80
2023-03-12T05:31:55.799Z,62.70
2023-03-12T05:34:24.300Z,62.60
2023-03-12T05:36:54.838Z,62.50
2023-03-12T05:39:26.415Z,62.60
2023-03-12T05:41:57.209Z,62.60
2023-03-12T05:44:29.859Z,63.20
2023-03-12T05:46:59.200Z,62.50
2023-03-12T05:49:28.644Z,62.50
2023-03-12T05:51:58.655Z,62.40
2023-03-12T05:54:27.524Z,62.30
2023-03-12T05:56:56.381Z,62.50
2023-03-12T05:59:26.374Z,62.20
2023-03-12T06:01:57.345Z,62.30
2023-03-12T06:04:31.729Z,62.40
2023-03-12T06:07:05.263Z,62.40
2023-03-12T06:09:36.387Z,62.50
2023-03-12T06:12:05.599Z,62.10
2023-03-12T06:14:34.195Z,62.20
2023-03-12T06:17:16.531Z,62.40
2023-03-12T06:19:47.967Z,61.90
2023-03-12T06:22:18.819Z,62.30
2023-03-12T06:24:53.460Z,62.10
2023-03-12T06:27:23.914Z,62.10
2023-03-12T06:29:52.280Z,62.30
2023-03-12T06:32:22.323Z,62.30
2023-03-12T06:34:50.774Z,62.10
2023-03-12T06:37:19.150Z,62.10
2023-03-12T06:40:01.793Z,62.30
2023-03-12T06:42:32.716Z,62.40
2023-03-12T06:45:20.341Z,62.40
2023-03-12T06:48:13.092Z,62.10
2023-03-12T06:50:43.889Z,62.30
2023-03-12T06:53:12.450Z,62.30
2023-03-12T06:55:53.685Z,62.40
2023-03-12T06:58:30.734Z,62.60
2023-03-12T07:01:04.880Z,62.70
2023-03-12T07:03:34.795Z,62.40
2023-03-12T07:06:03.090Z,62.30
2023-03-12T07:08:32.250Z,62.40
2023-03-12T07:11:04.147Z,62.60
2023-03-12T07:13:32.857Z,62.80
2023-03-12T07:16:01.781Z,62.50
2023-03-12T07:18:30.551Z,62.70
2023-03-12T07:21:00.581Z,62.40
2023-03-12T07:23:30.113Z,62.50
2023-03-12T07:25:59.074Z,62.60
2023-03-12T07:28:46.564Z,62.60
2023-03-12T07:31:51.325Z,62.90
2023-03-12T07:34:22.355Z,62.70
2023-03-12T07:36:52.558Z,62.40
2023-03-12T07:39:22.994Z,62.30
2023-03-12T07:41:51.756Z,62.60
2023-03-12T07:44:20.091Z,62.60
2023-03-12T07:46:52.224Z,62.50
2023-03-12T07:49:21.143Z,62.50
2023-03-12T07:51:50.218Z,62.60
2023-03-12T07:54:20.966Z,62.60
2023-03-12T07:57:04.677Z,62.60
2023-03-12T07:59:50.186Z,62.20
2023-03-12T08:02:36.573Z,62.30
2023-03-12T08:05:22.258Z,62.00
2023-03-12T08:08:04.680Z,61.80
2023-03-12T08:11:00.597Z,61.90
2023-03-12T08:14:35.177Z,61.30
2023-03-12T08:17:07.940Z,61.70
2023-03-12T08:19:39.296Z,60.90
2023-03-12T08:22:11.969Z,61.70
2023-03-12T08:24:40.718Z,61.20
2023-03-12T08:27:14.805Z,61.10
2023-03-12T08:29:46.351Z,61.10
2023-03-12T08:32:15.234Z,61.20
2023-03-12T08:34:45.059Z,61.30
2023-03-12T08:37:13.671Z,61.20
2023-03-12T08:39:52.266Z,60.90
2023-03-12T08:42:27.198Z,60.80
2023-03-12T08:46:04.779Z,60.90
2023-03-12T08:48:34.557Z,60.80
2023-03-12T08:51:06.105Z,61.10
2023-03-12T08:53:39.521Z,60.70
2023-03-12T08:56:11.220Z,60.90
2023-03-12T09:31:57.024Z,59.70
2023-03-12T09:34:27.934Z,59.00
2023-03-12T09:36:57.340Z,58.20
2023-03-12T09:39:28.752Z,57.80
2023-03-12T09:42:01.014Z,57.40
2023-03-12T09:44:40.043Z,57.60
2023-03-12T09:51:04.678Z,57.60
2023-03-12T09:57:40.099Z,56.90
2023-03-12T10:00:15.728Z,57.20
2023-03-12T10:03:36.501Z,56.50
2023-03-12T10:06:15.819Z,55.80
2023-03-12T10:21:20.669Z,54.00
2023-03-12T10:24:20.731Z,53.00
2023-03-12T10:27:30.203Z,53.20
2023-03-12T10:29:59.983Z,53.20
2023-03-12T10:46:22.368Z,50.00
2023-03-12T10:48:53.220Z,49.20
2023-03-12T10:51:21.604Z,49.10
2023-03-12T10:53:51.161Z,49.50
2023-03-12T11:13:27.329Z,48.50
2023-03-12T11:25:32.161Z,46.80
2023-03-12T11:28:07.617Z,46.80
2023-03-12T11:38:36.754Z,47.60
2023-03-12T11:41:33.669Z,47.30
2023-03-12T11:44:43.044Z,46.90
2023-03-12T11:51:53.236Z,47.30
2023-03-12T11:55:07.835Z,47.30
2023-03-12T11:57:58.680Z,46.70
2023-03-12T12:00:52.322Z,47.60
2023-03-12T12:11:00.093Z,45.50
2023-03-12T12:14:15.689Z,45.30
2023-03-12T12:17:12.924Z,43.90
2023-03-12T12:24:17.755Z,41.40
2023-03-12T12:27:17.828Z,40.70
2023-03-12T12:30:41.634Z,41.00
2023-03-12T12:33:43.981Z,40.20
2023-03-12T12:36:35.826Z,38.90
2023-03-12T12:39:24.046Z,39.00
2023-03-12T12:42:16.391Z,38.50
2023-03-12T12:44:58.750Z,38.40
2023-03-12T12:48:17.698Z,38.30
2023-03-12T12:55:47.954Z,38.30
2023-03-12T12:59:26.192Z,38.90
2023-03-12T13:09:57.847Z,40.20
2023-03-12T13:13:04.568Z,40.80
2023-03-12T13:23:52.528Z,42.10
2023-03-12T13:27:12.444Z,42.10
2023-03-12T13:30:13.251Z,42.40
2023-03-12T13:33:20.142Z,42.00
2023-03-12T13:36:35.273Z,42.20
2023-03-12T13:39:43.992Z,42.20
2023-03-12T13:43:07.781Z,42.80
2023-03-12T14:24:58.661Z,43.50
2023-03-12T14:28:15.788Z,43.90
2023-03-12T14:31:53.674Z,43.90
2023-03-12T14:38:23.425Z,44.50
2023-03-12T14:41:33.423Z,44.90
2023-03-12T14:44:35.630Z,44.90
2023-03-12T14:47:30.680Z,45.50
2023-03-12T14:50:14.796Z,45.70
2023-03-12T14:52:49.355Z,46.10
2023-03-12T14:55:26.654Z,46.70
2023-03-12T14:58:27.052Z,47.10
2023-03-12T15:07:58.239Z,49.80
2023-03-12T15:10:31.084Z,50.60
2023-03-12T15:23:31.225Z,52.40
2023-03-12T15:30:47.154Z,52.90
2023-03-12T15:33:40.323Z,53.20
2023-03-12T15:37:18.670Z,53.40
2023-03-12T15:41:49.680Z,54.00
2023-03-12T15:47:09.262Z,54.90
2023-03-12T15:53:15.352Z,55.10
2023-03-12T15:57:02.174Z,55.60
2023-03-12T16:00:48.569Z,55.70
2023-03-12T16:15:42.696Z,56.40
2023-03-12T16:26:03.164Z,56.40
2023-03-12T16:28:45.920Z,56.40
2023-03-12T16:31:52.515Z,56.50
2023-03-12T16:34:35.436Z,56.90
2023-03-12T16:37:39.725Z,56.90
2023-03-12T16:40:23.936Z,56.90
2023-03-12T16:43:26.649Z,56.90
2023-03-12T16:46:00.639Z,57.00
2023-03-12T16:48:31.157Z,57.30
2023-03-12T16:51:00.287Z,57.50
2023-03-12T16:54:10.756Z,57.50
2023-03-12T17:00:09.920Z,57.50
2023-03-12T17:05:26.492Z,57.60
2023-03-12T17:12:09.217Z,57.80
2023-03-12T17:14:48.866Z,58.00
2023-03-12T17:17:32.965Z,57.80
2023-03-12T17:24:00.185Z,57.80
2023-03-12T17:27:34.489Z,57.90
2023-03-12T17:33:52.959Z,58.30
2023-03-12T17:39:59.411Z,58.20
2023-03-12T17:45:48.130Z,58.70
2023-03-12T17:48:35.395Z,59.10
2023-03-12T17:51:22.826Z,58.90
2023-03-12T17:54:18.786Z,59.40
2023-03-12T18:50:54.041Z,60.60
2023-03-12T18:54:09.818Z,60.90
2023-03-12T18:57:31.692Z,61.00
2023-03-12T19:01:23.479Z,61.00
2023-03-12T19:07:07.934Z,61.60
2023-03-12T19:10:09.531Z,61.60
2023-03-12T19:16:00.816Z,60.90
2023-03-12T19:18:36.563Z,61.30
2023-03-12T19:21:34.431Z,61.10
2023-03-12T19:24:06.240Z,61.20
2023-03-12T19:26:34.877Z,61.50
2023-03-12T19:29:23.719Z,61.70
2023-03-12T19:32:23.454Z,61.50
2023-03-12T19:35:02.830Z,61.90
2023-03-12T19:38:14.758Z,61.80
2023-03-12T19:41:03.100Z,62.00
2023-03-12T19:43:38.695Z,62.00
2023-03-12T19:46:13.120Z,62.30
2023-03-12T19:48:45.720Z,62.00
2023-03-12T19:51:21.022Z,62.30
2023-03-12T19:54:11.496Z,62.50
2023-03-12T19:56:52.609Z,62.60
2023-03-12T19:59:27.445Z,62.60
2023-03-12T20:02:16.518Z,62.60
2023-03-12T20:04:52.283Z,62.90
2023-03-12T20:07:31.117Z,62.90
2023-03-12T20:10:11.208Z,63.00
2023-03-12T20:13:21.069Z,63.20
2023-03-12T20:16:15.911Z,63.20
2023-03-12T20:24:57.697Z,63.50
2023-03-12T20:27:40.831Z,63.60
2023-03-12T20:30:34.048Z,63.50
2023-03-12T20:33:53.947Z,63.50
2023-03-12T20:36:22.962Z,63.70
2023-03-12T20:39:00.206Z,63.80
2023-03-12T20:41:50.526Z,63.20
2023-03-12T20:51:58.619Z,64.00
2023-03-12T20:58:53.408Z,63.40
2023-03-12T21:01:24.262Z,63.30
2023-03-12T21:04:04.505Z,63.50
2023-03-12T21:06:33.416Z,63.60
2023-03-12T21:09:13.072Z,63.70
2023-03-12T21:11:51.733Z,63.70
2023-03-12T21:14:24.809Z,64.10
2023-03-12T21:16:59.063Z,64.30
2023-03-12T21:19:39.002Z,64.00
2023-03-12T21:22:08.874Z,64.20
2023-03-12T21:24:37.388Z,64.40
2023-03-12T21:27:05.785Z,64.50
2023-03-12T21:29:34.255Z,64.30
2023-03-12T21:35:02.386Z,64.70
2023-03-12T21:37:30.836Z,64.90
2023-03-12T21:40:01.439Z,64.90
2023-03-12T21:45:42.489Z,64.90
2023-03-12T21:48:16.696Z,65.00
2023-03-12T22:11:30.820Z,65.20
2023-03-12T22:14:01.027Z,65.30
2023-03-12T22:16:29.776Z,65.30
2023-03-12T22:19:00.255Z,65.40
2023-03-12T22:21:29.453Z,65.50
2023-03-12T22:23:58.481Z,65.40
2023-03-12T22:26:30.302Z,65.50
2023-03-12T22:29:03.961Z,65.60
2023-03-12T22:31:38.821Z,65.50
2023-03-12T22:34:07.738Z,65.70
2023-03-12T22:36:36.848Z,66.00
2023-03-12T22:39:12.918Z,66.00
2023-03-12T22:41:41.823Z,66.20
2023-03-12T22:44:12.146Z,66.20
2023-03-12T22:46:40.625Z,66.10
2023-03-12T22:49:14.143Z,66.20
2023-03-12T22:51:42.885Z,66.50
2023-03-12T22:54:18.244Z,66.10
2023-03-12T22:56:46.499Z,66.50
2023-03-12T22:59:16.760Z,66.50
2023-03-12T23:01:45.354Z,66.40
2023-03-12T23:04:13.942Z,66.50
2023-03-12T23:06:42.533Z,66.40
2023-03-12T23:09:11.286Z,66.30
2023-03-12T23:11:41.234Z,66.40
2023-03-12T23:14:09.825Z,66.40
2023-03-12T23:16:39.841Z,67.30
2023-03-12T23:19:08.631Z,66.60
2023-03-12T23:21:37.208Z,66.60
2023-03-12T23:24:05.948Z,66.50
2023-03-12T23:26:34.490Z,66.50
2023-03-12T23:29:03.572Z,66.50
2023-03-12T23:31:34.655Z,66.70
2023-03-12T23:34:06.592Z,66.90
2023-03-12T23:36:35.069Z,66.50
2023-03-12T23:39:04.845Z,66.70
2023-03-12T23:41:33.909Z,66.80
2023-03-12T23:44:04.070Z,67.00
2023-03-12T23:46:32.820Z,66.70
2023-03-12T23:49:02.211Z,66.70
2023-03-12T23:51:34.695Z,66.80
2023-03-12T23:54:05.473Z,66.60
2023-03-12T23:56:36.604Z,66.60
2023-03-12T23:59:06.190Z,66.80
